createdAt,value
2018-01-04T00:01:05.599Z,15.20
2018-01-04T00:03:32.298Z,20.85
2018-01-04T00:05:58.943Z,16.80
2018-01-04T00:08:25.764Z,14.43
2018-01-04T00:10:52.421Z,18.23
2018-01-04T00:13:19.065Z,14.32
2018-01-04T00:15:45.730Z,15.30
2018-01-04T00:18:13.172Z,12.85
2018-01-04T00:20:39.861Z,14.77
2018-01-04T00:23:07.403Z,13.23
2018-01-04T00:25:34.049Z,12.20
2018-01-04T00:28:00.710Z,14.50
2018-01-04T00:30:27.392Z,12.13
2018-01-04T00:32:54.040Z,11.50
2018-01-04T00:35:20.717Z,10.50
2018-01-04T00:37:47.377Z,12.88
2018-01-04T00:40:14.013Z,13.32
2018-01-04T00:42:40.702Z,13.27
2018-01-04T00:45:07.371Z,10.02
2018-01-04T00:47:34.017Z,9.88
2018-01-04T00:50:01.294Z,10.60
2018-01-04T00:52:27.974Z,10.65
2018-01-04T00:54:55.412Z,12.70
2018-01-04T00:57:22.827Z,11.45
2018-01-04T00:59:49.479Z,11.35
2018-01-04T01:02:16.888Z,11.38
2018-01-04T01:04:44.307Z,11.93
2018-01-04T01:07:10.962Z,9.43
2018-01-04T01:09:38.195Z,14.23
2018-01-04T01:12:04.866Z,12.37
2018-01-04T01:14:31.560Z,10.32
2018-01-04T01:16:59.198Z,11.95
2018-01-04T01:19:26.591Z,10.82
2018-01-04T01:21:53.299Z,13.82
2018-01-04T01:24:21.017Z,16.15
2018-01-04T01:26:47.691Z,10.82
2018-01-04T01:29:14.350Z,14.65
2018-01-04T01:31:41.761Z,15.00
2018-01-04T01:34:08.410Z,12.63
2018-01-04T01:36:35.077Z,14.05
2018-01-04T01:39:02.636Z,11.65
2018-01-04T01:41:29.308Z,11.23
2018-01-04T01:43:56.917Z,12.55
2018-01-04T01:46:23.561Z,11.52
2018-01-04T01:49:08.566Z,15.40
2018-01-04T01:51:35.215Z,14.23
2018-01-04T01:54:02.631Z,13.90
2018-01-04T01:56:29.296Z,19.62
2018-01-04T01:58:55.981Z,15.75
2018-01-04T02:01:22.642Z,17.02
2018-01-04T02:03:49.300Z,15.70
2018-01-04T02:06:16.855Z,14.93
2018-01-04T02:08:43.529Z,16.58
2018-01-04T02:11:10.212Z,11.60
2018-01-04T02:13:36.862Z,9.73
2018-01-04T02:16:03.538Z,8.77
2018-01-04T02:18:48.597Z,11.55
2018-01-04T02:21:33.695Z,11.18
2018-01-04T02:24:18.550Z,9.52
2018-01-04T02:40:41.029Z,13.68
2018-01-04T02:43:26.006Z,11.10
2018-01-04T02:59:27.909Z,9.07
2018-01-04T03:01:55.397Z,13.68
2018-01-04T03:04:22.061Z,11.43
2018-01-04T03:06:48.845Z,9.30
2018-01-04T03:09:15.584Z,11.48
2018-01-04T03:11:43.335Z,10.27
2018-01-04T03:14:10.284Z,10.88
2018-01-04T03:16:36.931Z,8.68
2018-01-04T03:19:03.622Z,10.55
2018-01-04T03:21:30.336Z,12.40
2018-01-04T03:23:57.365Z,11.43
2018-01-04T03:26:30.105Z,9.00
2018-01-04T03:29:02.656Z,12.23
2018-01-04T03:31:35.195Z,12.73
2018-01-04T03:34:07.798Z,11.90
2018-01-04T03:36:41.390Z,11.18
2018-01-04T03:39:14.986Z,10.70
2018-01-04T03:41:47.582Z,10.90
2018-01-04T03:44:20.862Z,11.35
2018-01-04T03:46:53.868Z,9.23
2018-01-04T03:49:26.481Z,9.30
2018-01-04T03:51:59.115Z,12.88
2018-01-04T03:54:32.469Z,9.20
2018-01-04T03:57:05.916Z,10.60
2018-01-04T03:59:38.703Z,7.78
2018-01-04T04:02:11.320Z,9.40
2018-01-04T04:04:44.062Z,9.10
2018-01-04T04:07:16.870Z,8.57
2018-01-04T04:09:43.520Z,9.20
2018-01-04T04:12:10.637Z,8.48
2018-01-04T04:14:37.296Z,12.02
2018-01-04T04:17:04.365Z,8.35
2018-01-04T04:19:31.783Z,8.57
2018-01-04T04:21:58.770Z,10.25
2018-01-04T04:24:25.467Z,9.30
2018-01-04T04:26:52.863Z,7.53
2018-01-04T04:29:20.527Z,8.43
2018-01-04T04:31:47.227Z,9.15
2018-01-04T04:34:14.604Z,7.43
2018-01-04T04:36:41.241Z,7.15
2018-01-04T04:39:07.914Z,8.85
2018-01-04T04:41:34.546Z,7.78
2018-01-04T04:44:02.307Z,9.00
2018-01-04T04:46:28.973Z,9.98
2018-01-04T04:48:55.666Z,9.13
2018-01-04T04:51:23.306Z,10.55
2018-01-04T04:53:49.978Z,10.73
2018-01-04T04:56:17.475Z,19.58
2018-01-04T04:58:44.227Z,10.45
2018-01-04T05:01:10.894Z,7.05
2018-01-04T05:03:38.519Z,10.00
2018-01-04T05:06:05.193Z,8.20
2018-01-04T05:08:31.838Z,8.25
2018-01-04T05:10:58.495Z,8.68
2018-01-04T05:13:25.259Z,6.90
2018-01-04T05:15:52.759Z,10.02
2018-01-04T05:18:19.487Z,7.97
2018-01-04T05:20:46.235Z,5.47
2018-01-04T05:23:12.901Z,9.77
2018-01-04T05:25:39.579Z,7.72
2018-01-04T05:28:06.318Z,6.18
2018-01-04T05:30:34.016Z,6.60
2018-01-04T05:33:01.733Z,7.95
2018-01-04T05:35:28.501Z,8.40
2018-01-04T05:37:55.274Z,8.88
2018-01-04T05:40:22.689Z,11.88
2018-01-04T05:42:49.446Z,9.25
2018-01-04T05:45:16.945Z,13.93
2018-01-04T05:47:44.769Z,10.23
2018-01-04T05:50:12.000Z,8.98
2018-01-04T05:52:38.658Z,10.88
2018-01-04T05:55:05.304Z,7.82
2018-01-04T05:57:31.975Z,9.00
2018-01-04T05:59:59.561Z,11.20
2018-01-04T06:02:26.207Z,9.52
2018-01-04T06:04:52.879Z,12.25
2018-01-04T06:07:19.506Z,10.23
2018-01-04T06:09:46.148Z,14.02
2018-01-04T06:12:12.820Z,10.43
2018-01-04T06:14:39.473Z,7.45
2018-01-04T06:17:06.115Z,6.50
2018-01-04T06:19:32.772Z,13.73
2018-01-04T06:21:59.525Z,8.23
2018-01-04T06:24:26.977Z,6.93
2018-01-04T06:26:53.613Z,7.00
2018-01-04T06:29:20.346Z,8.10
2018-01-04T06:31:47.030Z,9.35
2018-01-04T06:34:15.268Z,7.05
2018-01-04T06:36:42.576Z,10.95
2018-01-04T06:39:09.234Z,7.12
2018-01-04T06:41:36.612Z,9.52
2018-01-04T06:44:03.554Z,6.82
2018-01-04T06:46:30.226Z,7.95
2018-01-04T06:48:56.863Z,6.65
2018-01-04T06:51:23.548Z,9.55
2018-01-04T06:53:50.220Z,12.18
2018-01-04T06:56:16.969Z,9.23
2018-01-04T06:58:44.371Z,9.02
2018-01-04T07:01:11.806Z,12.85
2018-01-04T07:03:39.121Z,12.88
2018-01-04T07:06:06.727Z,13.00
2018-01-04T07:08:36.205Z,11.82
2018-01-04T07:11:02.920Z,13.02
2018-01-04T07:13:30.301Z,11.70
2018-01-04T07:15:57.341Z,10.27
2018-01-04T07:18:24.921Z,11.45
2018-01-04T07:20:51.578Z,11.45
2018-01-04T07:23:18.317Z,9.40
2018-01-04T07:25:45.895Z,11.00
2018-01-04T07:28:12.622Z,10.23
2018-01-04T07:30:39.976Z,9.00
2018-01-04T07:33:06.626Z,13.87
2018-01-04T07:35:33.296Z,13.07
2018-01-04T07:38:00.041Z,17.40
2018-01-04T07:40:26.696Z,14.37
2018-01-04T07:42:53.348Z,15.30
2018-01-04T07:45:20.057Z,18.90
2018-01-04T07:47:48.261Z,19.97
2018-01-04T07:50:14.982Z,17.63
2018-01-04T07:52:41.641Z,18.07
2018-01-04T07:55:08.369Z,14.50
2018-01-04T07:57:34.993Z,15.03
2018-01-04T08:00:02.562Z,17.23
2018-01-04T08:02:29.224Z,15.90
2018-01-04T08:04:56.522Z,15.43
2018-01-04T08:07:23.187Z,12.73
2018-01-04T08:09:49.829Z,17.43
2018-01-04T08:12:17.355Z,14.53
2018-01-04T08:14:44.852Z,14.17
2018-01-04T08:17:11.486Z,13.60
2018-01-04T08:19:38.473Z,14.07
2018-01-04T08:22:05.164Z,11.10
2018-01-04T08:24:32.666Z,10.57
2018-01-04T08:26:59.345Z,11.10
2018-01-04T08:29:26.030Z,16.57
2018-01-04T08:31:52.696Z,11.07
2018-01-04T08:34:19.353Z,13.47
2018-01-04T08:36:46.060Z,11.07
2018-01-04T08:39:12.869Z,12.30
2018-01-04T08:41:39.538Z,9.73
2018-01-04T08:44:06.219Z,12.40
2018-01-04T08:49:11.917Z,13.90
2018-01-04T08:51:41.332Z,14.30
2018-01-04T08:54:09.816Z,15.52
2018-01-04T08:56:38.320Z,15.90
2018-01-04T08:59:16.395Z,14.23
2018-01-04T09:01:43.063Z,13.15
2018-01-04T09:04:11.639Z,12.57
2018-01-04T09:06:40.252Z,12.80
2018-01-04T09:09:07.526Z,13.02
2018-01-04T09:11:36.183Z,13.13
2018-01-04T09:14:03.638Z,12.07
2018-01-04T09:16:30.396Z,14.30
2018-01-04T09:18:57.108Z,9.77
2018-01-04T09:21:25.663Z,13.23
2018-01-04T09:23:55.075Z,11.93
2018-01-04T09:26:23.499Z,18.45
2018-01-04T09:28:52.043Z,13.55
2018-01-04T09:31:18.714Z,12.80
2018-01-04T09:33:45.400Z,11.43
2018-01-04T09:36:12.150Z,11.10
2018-01-04T09:38:38.843Z,9.70
2018-01-04T09:41:07.505Z,9.50
2018-01-04T09:43:35.750Z,10.97
2018-01-04T09:46:04.214Z,8.95
2018-01-04T09:48:32.659Z,14.63
2018-01-04T09:51:01.180Z,12.90
2018-01-04T09:53:29.610Z,10.38
2018-01-04T09:55:58.102Z,15.63
2018-01-04T09:58:26.616Z,15.45
2018-01-04T10:00:55.094Z,11.88
2018-01-04T10:03:23.646Z,11.18
2018-01-04T10:05:52.246Z,9.68
2018-01-04T10:08:20.902Z,9.45
2018-01-04T10:10:52.185Z,13.27
2018-01-04T10:13:20.809Z,10.93
2018-01-04T10:15:49.419Z,9.52
2018-01-04T10:18:17.894Z,9.43
2018-01-04T10:20:46.465Z,9.80
2018-01-04T10:23:26.144Z,10.05
2018-01-04T10:25:52.793Z,9.85
2018-01-04T10:28:21.547Z,10.90
2018-01-04T10:30:48.245Z,9.60
2018-01-04T10:33:16.270Z,10.25
2018-01-04T10:35:43.003Z,8.02
2018-01-04T10:38:09.696Z,9.38
2018-01-04T10:40:38.053Z,6.43
2018-01-04T10:43:04.720Z,7.93
2018-01-04T10:45:32.136Z,6.68
2018-01-04T10:47:58.794Z,7.78
2018-01-04T10:50:25.439Z,8.27
2018-01-04T10:52:53.290Z,9.27
2018-01-04T10:55:19.940Z,8.17
2018-01-04T10:57:47.398Z,9.80
2018-01-04T11:00:14.167Z,10.25
2018-01-04T11:02:40.804Z,8.87
2018-01-04T11:05:07.513Z,13.00
2018-01-04T11:07:34.232Z,10.23
2018-01-04T11:10:01.004Z,7.85
2018-01-04T11:12:27.746Z,14.27
2018-01-04T11:14:54.398Z,9.45
2018-01-04T11:17:21.045Z,11.40
2018-01-04T11:19:47.718Z,7.87
2018-01-04T11:22:14.369Z,9.07
2018-01-04T11:24:41.810Z,9.30
2018-01-04T11:27:08.474Z,9.10
2018-01-04T11:29:35.953Z,10.18
2018-01-04T11:32:02.634Z,10.07
2018-01-04T11:34:30.169Z,12.77
2018-01-04T11:36:56.913Z,8.33
2018-01-04T11:39:23.679Z,14.03
2018-01-04T11:41:51.276Z,8.70
2018-01-04T11:44:17.939Z,7.37
2018-01-04T11:46:46.248Z,7.57
2018-01-04T11:49:13.010Z,8.25
2018-01-04T11:51:39.694Z,6.80
2018-01-04T11:54:06.368Z,5.50
2018-01-04T11:56:33.220Z,9.10
2018-01-04T11:59:00.808Z,6.10
2018-01-04T12:01:27.466Z,9.97
2018-01-04T12:03:54.306Z,8.73
2018-01-04T12:06:21.806Z,11.33
2018-01-04T12:08:49.222Z,9.20
2018-01-04T12:11:16.085Z,11.23
2018-01-04T12:13:42.826Z,9.53
2018-01-04T12:16:09.530Z,15.23
2018-01-04T12:18:36.263Z,12.50
2018-01-04T12:21:03.975Z,12.00
2018-01-04T12:23:30.620Z,9.73
2018-01-04T12:25:57.383Z,8.83
2018-01-04T12:28:24.022Z,11.03
2018-01-04T12:30:50.732Z,11.13
2018-01-04T12:33:17.418Z,9.47
2018-01-04T12:35:45.769Z,12.93
2018-01-04T12:38:15.131Z,12.27
2018-01-04T12:40:41.961Z,19.33
2018-01-04T12:43:08.753Z,19.42
2018-01-04T12:45:35.929Z,6.23
2018-01-04T12:48:02.627Z,11.63
2018-01-04T12:50:29.292Z,8.05
2018-01-04T12:52:56.017Z,9.63
2018-01-04T12:55:22.650Z,7.28
2018-01-04T12:57:49.297Z,9.75
2018-01-04T13:00:16.017Z,15.73
2018-01-04T13:02:43.447Z,9.65
2018-01-04T13:05:10.107Z,13.15
2018-01-04T13:07:37.557Z,7.80
2018-01-04T13:10:04.295Z,11.80
2018-01-04T13:12:30.948Z,6.30
2018-01-04T13:14:57.640Z,15.98
2018-01-04T13:17:24.316Z,8.02
2018-01-04T13:19:50.953Z,9.63
2018-01-04T13:22:17.653Z,11.17
2018-01-04T13:24:44.458Z,10.20
2018-01-04T13:27:11.097Z,15.57
2018-01-04T13:29:37.730Z,9.80
2018-01-04T13:32:04.508Z,10.05
2018-01-04T13:34:31.930Z,8.17
2018-01-04T13:36:58.653Z,9.63
2018-01-04T13:39:25.363Z,9.68
2018-01-04T13:41:53.104Z,9.67
2018-01-04T13:44:19.766Z,10.57
2018-01-04T13:46:47.210Z,10.23
2018-01-04T13:49:14.070Z,8.48
2018-01-04T13:51:41.315Z,16.03
2018-01-04T13:54:08.706Z,9.77
2018-01-04T13:56:36.110Z,14.57
2018-01-04T13:59:02.820Z,16.65
2018-01-04T14:01:30.356Z,11.95
2018-01-04T14:03:58.286Z,24.10
2018-01-04T14:06:26.173Z,8.60
2018-01-04T14:08:53.021Z,13.55
2018-01-04T14:11:19.734Z,15.88
2018-01-04T14:13:46.411Z,9.75
2018-01-04T14:16:14.087Z,13.50
2018-01-04T14:18:40.774Z,13.10
2018-01-04T14:21:07.591Z,17.70
2018-01-04T14:23:36.120Z,14.05
2018-01-04T14:26:03.304Z,17.17
2018-01-04T14:28:30.128Z,10.68
2018-01-04T14:30:57.688Z,14.00
2018-01-04T14:33:25.010Z,12.23
2018-01-04T14:35:52.006Z,15.40
2018-01-04T14:38:19.449Z,9.80
2018-01-04T14:40:46.122Z,11.68
2018-01-04T14:43:12.792Z,17.83
2018-01-04T14:45:41.110Z,18.57
2018-01-04T14:48:07.752Z,26.05
2018-01-04T14:50:34.564Z,14.35
2018-01-04T14:53:01.984Z,12.00
2018-01-04T14:55:28.729Z,13.32
2018-01-04T14:57:56.234Z,15.68
2018-01-04T15:00:23.650Z,20.15
2018-01-04T15:02:50.312Z,17.90
2018-01-04T15:05:17.074Z,13.80
2018-01-04T15:07:44.471Z,17.48
2018-01-04T15:10:11.170Z,17.52
2018-01-04T15:12:37.835Z,20.62
2018-01-04T15:15:05.235Z,27.87
2018-01-04T15:17:31.913Z,17.80
2018-01-04T15:19:58.586Z,22.40
2018-01-04T15:22:25.270Z,17.52
2018-01-04T15:24:51.978Z,15.32
2018-01-04T15:27:18.679Z,17.83
2018-01-04T15:29:45.434Z,20.42
2018-01-04T15:32:12.375Z,23.30
2018-01-04T15:34:39.046Z,19.15
2018-01-04T15:37:06.449Z,25.85
2018-01-04T15:39:33.166Z,22.17
2018-01-04T15:41:59.835Z,19.25
2018-01-04T15:44:26.508Z,19.87
2018-01-04T15:46:53.224Z,21.80
2018-01-04T15:49:19.884Z,23.73
2018-01-04T15:51:48.292Z,21.35
2018-01-04T15:54:15.086Z,23.27
2018-01-04T15:56:42.156Z,23.80
2018-01-04T15:59:08.844Z,21.67
2018-01-04T16:01:35.532Z,30.25
2018-01-04T16:04:02.204Z,24.00
2018-01-04T16:06:29.154Z,24.00
2018-01-04T16:08:56.357Z,23.90
2018-01-04T16:11:23.087Z,24.98
2018-01-04T16:13:49.787Z,25.55
2018-01-04T16:16:16.526Z,30.95
2018-01-04T16:18:43.211Z,27.00
2018-01-04T16:21:09.901Z,23.75
2018-01-04T16:23:36.575Z,23.70
2018-01-04T16:26:04.249Z,24.65
2018-01-04T16:28:32.500Z,30.48
2018-01-04T16:30:59.173Z,28.05
2018-01-04T16:33:26.619Z,23.05
2018-01-04T16:35:54.146Z,25.20
2018-01-04T16:38:20.830Z,24.20
2018-01-04T16:40:47.541Z,22.15
2018-01-04T16:43:14.189Z,25.45
2018-01-04T16:45:41.175Z,34.00
2018-01-04T16:48:08.621Z,27.73
2018-01-04T16:50:35.338Z,39.85
2018-01-04T16:53:02.027Z,31.42
2018-01-04T16:55:29.440Z,34.25
2018-01-04T16:57:56.157Z,31.33
2018-01-04T17:00:22.849Z,30.67
2018-01-04T17:02:49.527Z,35.13
2018-01-04T17:05:17.033Z,31.90
2018-01-04T17:07:43.718Z,36.60
2018-01-04T17:10:11.125Z,36.92
2018-01-04T17:12:37.877Z,29.52
2018-01-04T17:15:04.592Z,36.60
2018-01-04T17:17:31.299Z,29.33
2018-01-04T17:19:58.074Z,29.17
2018-01-04T17:22:25.459Z,30.08
2018-01-04T17:24:52.113Z,35.65
2018-01-04T17:27:18.822Z,27.73
2018-01-04T17:29:45.649Z,28.45
2018-01-04T17:32:13.372Z,33.33
2018-01-04T17:34:40.085Z,30.90
2018-01-04T17:37:06.779Z,26.45
2018-01-04T17:39:33.519Z,30.37
2018-01-04T17:42:00.243Z,30.70
2018-01-04T17:44:26.914Z,30.10
2018-01-04T17:46:53.696Z,29.70
2018-01-04T17:49:20.803Z,29.17
2018-01-04T17:51:47.535Z,30.17
2018-01-04T17:54:14.237Z,26.67
2018-01-04T17:56:40.981Z,33.45
2018-01-04T17:59:07.653Z,36.63
2018-01-04T18:01:34.462Z,30.15
2018-01-04T18:04:01.144Z,31.30
2018-01-04T18:06:27.828Z,42.17
2018-01-04T18:08:54.546Z,34.85
2018-01-04T18:11:21.201Z,40.30
2018-01-04T18:13:47.877Z,29.12
2018-01-04T18:16:14.981Z,34.67
2018-01-04T18:18:41.764Z,33.67
2018-01-04T18:21:09.199Z,36.38
2018-01-04T18:23:35.881Z,33.15
2018-01-04T18:26:03.277Z,29.65
2018-01-04T18:28:29.949Z,34.30
2018-01-04T18:30:56.634Z,33.35
2018-01-04T18:33:23.410Z,27.42
2018-01-04T18:35:50.127Z,37.40
2018-01-04T18:38:16.843Z,32.28
2018-01-04T18:40:44.222Z,35.97
2018-01-04T18:43:11.087Z,35.80
2018-01-04T18:45:37.805Z,42.25
2018-01-04T18:48:05.200Z,36.90
2018-01-04T18:50:31.870Z,35.63
2018-01-04T18:52:58.564Z,32.72
2018-01-04T18:55:25.282Z,31.00
2018-01-04T18:57:53.611Z,32.28
2018-01-04T19:00:20.398Z,32.05
2018-01-04T19:02:47.855Z,33.92
2018-01-04T19:05:14.519Z,38.72
2018-01-04T19:07:41.315Z,37.42
2018-01-04T19:10:08.006Z,54.92
2018-01-04T19:12:36.260Z,47.35
2018-01-04T19:15:03.034Z,48.08
2018-01-04T19:17:30.540Z,57.97
2018-01-04T19:19:57.206Z,60.95
2018-01-04T19:22:23.890Z,56.92
2018-01-04T19:24:52.170Z,54.15
2018-01-04T19:27:19.672Z,51.65
2018-01-04T19:29:46.348Z,55.20
2018-01-04T19:32:12.999Z,48.58
2018-01-04T19:34:40.469Z,53.50
2018-01-04T19:37:07.889Z,45.97
2018-01-04T19:39:34.563Z,58.35
2018-01-04T19:42:02.808Z,52.72
2018-01-04T19:44:29.768Z,51.22
2018-01-04T19:46:56.446Z,49.40
2018-01-04T19:49:24.790Z,60.17
2018-01-04T19:51:51.447Z,48.67
2018-01-04T19:54:19.035Z,52.83
2018-01-04T19:56:46.472Z,50.28
2018-01-04T19:59:13.165Z,53.65
2018-01-04T20:01:39.823Z,49.92
2018-01-04T20:04:07.521Z,49.90
2018-01-04T20:06:34.235Z,45.33
2018-01-04T20:09:01.109Z,48.45
2018-01-04T20:11:28.264Z,53.75
2018-01-04T20:13:54.926Z,45.92
2018-01-04T20:16:22.618Z,51.20
2018-01-04T20:18:49.331Z,44.35
2018-01-04T20:21:16.042Z,52.70
2018-01-04T20:23:42.726Z,46.17
2018-01-04T20:26:10.051Z,39.15
2018-01-04T20:28:36.745Z,51.03
2018-01-04T20:31:03.454Z,42.42
2018-01-04T20:33:30.173Z,36.55
2018-01-04T20:35:56.875Z,38.95
2018-01-04T20:38:24.279Z,38.50
2018-01-04T20:40:51.012Z,37.00
2018-01-04T20:43:18.596Z,39.08
2018-01-04T20:45:45.269Z,40.35
2018-01-04T20:48:11.944Z,31.77
2018-01-04T20:50:39.419Z,38.15
2018-01-04T20:53:06.069Z,40.50
2018-01-04T20:55:32.764Z,32.72
2018-01-04T20:58:00.244Z,37.92
2018-01-04T21:00:26.923Z,35.67
2018-01-04T21:02:53.571Z,33.97
2018-01-04T21:05:20.972Z,33.03
2018-01-04T21:07:48.439Z,42.80
2018-01-04T21:10:15.835Z,39.55
2018-01-04T21:12:43.394Z,38.92
2018-01-04T21:15:10.078Z,36.55
2018-01-04T21:17:36.782Z,35.45
2018-01-04T21:20:03.586Z,40.60
2018-01-04T21:22:31.013Z,37.30
2018-01-04T21:24:57.698Z,36.33
2018-01-04T21:27:25.123Z,40.70
2018-01-04T21:29:51.765Z,53.45
2018-01-04T21:32:18.447Z,56.75
2018-01-04T21:34:45.103Z,61.28
2018-01-04T21:37:11.764Z,61.15
2018-01-04T21:39:38.421Z,56.22
2018-01-04T21:42:05.101Z,54.97
2018-01-04T21:44:33.095Z,56.58
2018-01-04T21:46:59.858Z,52.70
2018-01-04T21:49:26.510Z,48.58
2018-01-04T21:51:53.161Z,49.78
2018-01-04T21:54:19.838Z,54.08
2018-01-04T21:56:47.254Z,50.60
2018-01-04T21:59:13.896Z,48.97
2018-01-04T22:01:40.569Z,47.95
2018-01-04T22:04:07.249Z,49.20
2018-01-04T22:06:33.997Z,45.10
2018-01-04T22:09:00.662Z,47.22
2018-01-04T22:11:27.737Z,45.47
2018-01-04T22:13:54.388Z,54.60
2018-01-04T22:16:21.815Z,50.45
2018-01-04T22:18:48.628Z,44.75
2018-01-04T22:21:16.018Z,39.70
2018-01-04T22:23:42.665Z,55.15
2018-01-04T22:26:09.338Z,42.20
2018-01-04T22:28:35.986Z,42.70
2018-01-04T22:31:02.972Z,35.55
2018-01-04T22:33:29.634Z,36.33
2018-01-04T22:35:56.353Z,38.03
2018-01-04T22:38:23.758Z,33.22
2018-01-04T22:40:50.421Z,42.83
2018-01-04T22:43:17.089Z,35.80
2018-01-04T22:45:44.930Z,34.72
2018-01-04T22:48:11.603Z,34.53
2018-01-04T22:50:38.990Z,34.25
2018-01-04T22:53:05.669Z,35.95
2018-01-04T22:55:32.333Z,28.23
2018-01-04T22:57:58.978Z,29.77
2018-01-04T23:00:25.700Z,26.10
2018-01-04T23:02:52.742Z,22.55
2018-01-04T23:05:19.370Z,29.35
2018-01-04T23:07:46.046Z,22.45
2018-01-04T23:10:12.732Z,24.75
2018-01-04T23:12:39.450Z,22.00
2018-01-04T23:15:06.874Z,22.27
2018-01-04T23:17:33.550Z,21.75
2018-01-04T23:20:01.696Z,23.70
2018-01-04T23:22:28.459Z,19.85
2018-01-04T23:24:55.118Z,21.15
2018-01-04T23:27:21.813Z,22.75
2018-01-04T23:29:48.458Z,24.12
2018-01-04T23:32:15.149Z,21.42
2018-01-04T23:34:42.574Z,36.92
2018-01-04T23:37:10.797Z,44.25
2018-01-04T23:39:38.238Z,45.75
2018-01-04T23:42:05.572Z,43.25
2018-01-04T23:44:32.217Z,45.38
2018-01-04T23:46:58.935Z,40.47
2018-01-04T23:49:25.962Z,36.67
2018-01-04T23:51:53.636Z,43.17
2018-01-04T23:54:20.331Z,51.60
2018-01-04T23:56:47.631Z,42.13
2018-01-04T23:59:14.953Z,45.15
